createdAt,value
2023-04-13T00:00:13.100Z,9.280029
2023-04-13T00:01:13.058Z,9.280022
2023-04-13T00:02:13.116Z,9.280021
2023-04-13T00:03:13.225Z,9.280046
2023-04-13T00:04:14.046Z,9.280077
2023-04-13T00:05:13.033Z,9.279949
2023-04-13T00:06:12.974Z,9.279907
2023-04-13T00:07:12.944Z,9.280094
2023-04-13T00:08:12.952Z,9.280103
2023-04-13T00:09:12.918Z,9.279840
2023-04-13T00:10:12.914Z,9.279875
2023-04-13T00:11:12.905Z,9.279960
2023-04-13T00:12:12.849Z,9.280013
2023-04-13T00:13:12.835Z,9.279978
2023-04-13T00:14:13.570Z,9.279910
2023-04-13T00:15:12.822Z,9.279963
2023-04-13T00:16:12.817Z,9.279955
2023-04-13T00:17:12.750Z,9.280025
2023-04-13T00:18:13.746Z,9.279968
2023-04-13T00:19:12.723Z,9.279978
2023-04-13T00:20:12.725Z,9.280025
2023-04-13T00:21:12.688Z,9.280065
2023-04-13T00:22:12.673Z,9.280144
2023-04-13T00:23:12.643Z,9.280082
2023-04-13T00:24:12.628Z,9.279905
2023-04-13T00:25:12.636Z,9.279896
2023-04-13T00:26:12.591Z,9.279895
2023-04-13T00:27:12.572Z,9.279878
2023-04-13T00:28:12.554Z,9.279979
2023-04-13T00:29:12.535Z,9.280123
2023-04-13T00:30:12.543Z,9.280061
2023-04-13T00:31:12.515Z,9.280045
2023-04-13T00:32:12.489Z,9.280005
2023-04-13T00:33:12.486Z,9.280119
2023-04-13T00:34:12.445Z,9.280038
2023-04-13T00:35:12.447Z,9.280059
2023-04-13T00:36:46.030Z,9.280007
2023-04-13T00:37:47.484Z,9.279969
2023-04-13T00:38:12.378Z,9.279990
2023-04-13T00:39:12.360Z,9.280036
2023-04-13T00:40:12.371Z,9.280029
2023-04-13T00:41:12.327Z,9.280000
2023-04-13T00:42:12.307Z,9.280084
2023-04-13T00:43:12.364Z,9.280030
2023-04-13T00:44:12.266Z,9.280039
2023-04-13T00:45:12.275Z,9.280017
2023-04-13T00:46:12.279Z,9.279986
2023-04-13T00:47:12.220Z,9.280042
2023-04-13T00:48:45.789Z,9.280064
2023-04-13T00:49:12.176Z,9.280046
2023-04-13T00:50:12.184Z,9.280027
2023-04-13T00:51:14.162Z,9.279804
2023-04-13T00:52:12.128Z,9.279985
2023-04-13T00:53:12.132Z,9.279975
2023-04-13T00:54:45.776Z,9.280000
2023-04-13T00:55:12.104Z,9.279834
2023-04-13T00:56:12.059Z,9.279913
2023-04-13T00:57:12.042Z,9.279976
2023-04-13T00:58:12.031Z,9.279984
2023-04-13T00:59:45.667Z,9.280025
2023-04-13T01:00:11.992Z,9.280043
2023-04-13T01:01:12.010Z,9.279902
2023-04-13T01:02:12.005Z,9.279852
2023-04-13T01:03:12.095Z,9.279968
2023-04-13T01:04:11.978Z,9.279921
2023-04-13T01:05:11.927Z,9.279866
2023-04-13T01:06:11.884Z,9.279958
2023-04-13T01:07:45.454Z,9.280016
2023-04-13T01:08:11.846Z,9.279888
2023-04-13T01:09:11.836Z,9.279947
2023-04-13T01:10:12.731Z,9.279923
2023-04-13T01:11:45.519Z,9.279938
2023-04-13T01:12:11.785Z,9.279917
2023-04-13T01:13:11.786Z,9.279927
2023-04-13T01:14:11.758Z,9.279945
2023-04-13T01:15:11.761Z,9.279836
2023-04-13T01:16:11.754Z,9.279840
2023-04-13T01:17:11.693Z,9.279839
2023-04-13T01:18:11.686Z,9.279949
2023-04-13T01:19:11.657Z,9.279885
2023-04-13T01:20:11.653Z,9.279874
2023-04-13T01:21:12.623Z,9.279910
2023-04-13T01:22:11.605Z,9.279870
2023-04-13T01:23:11.585Z,9.279946
2023-04-13T01:24:11.569Z,9.279959
2023-04-13T01:25:11.573Z,9.279754
2023-04-13T01:26:11.531Z,9.279728
2023-04-13T01:27:11.511Z,9.279892
2023-04-13T01:28:11.495Z,9.279936
2023-04-13T01:29:11.477Z,9.279925
2023-04-13T01:30:11.485Z,9.280099
2023-04-13T01:31:11.626Z,9.279945
2023-04-13T01:32:11.424Z,9.279871
2023-04-13T01:33:11.456Z,9.279901
2023-04-13T01:34:11.382Z,9.279945
2023-04-13T01:35:11.391Z,9.279964
2023-04-13T01:36:11.346Z,9.279909
2023-04-13T01:37:11.342Z,9.279905
2023-04-13T01:38:11.310Z,9.279981
2023-04-13T01:39:11.289Z,9.279883
2023-04-13T01:40:11.338Z,9.279863
2023-04-13T01:41:11.251Z,9.279860
2023-04-13T01:42:11.243Z,9.279934
2023-04-13T01:43:11.267Z,9.279904
2023-04-13T01:44:11.204Z,9.279885
2023-04-13T01:45:11.242Z,9.279849
2023-04-13T01:46:11.192Z,9.279946
2023-04-13T01:47:11.148Z,9.279972
2023-04-13T01:48:11.139Z,9.279931
2023-04-13T01:49:11.112Z,9.279834
2023-04-13T01:50:11.098Z,9.279705
2023-04-13T01:51:11.295Z,9.279763
2023-04-13T01:52:11.113Z,9.279998
2023-04-13T01:53:11.088Z,9.280107
2023-04-13T01:54:11.055Z,9.279921
2023-04-13T01:55:11.023Z,9.279879
2023-04-13T01:56:11.013Z,9.279920
2023-04-13T01:57:10.962Z,9.280155
2023-04-13T01:58:11.774Z,9.280047
2023-04-13T01:59:11.732Z,9.280081
2023-04-13T02:00:10.936Z,9.280015
2023-04-13T02:01:10.972Z,9.279999
2023-04-13T02:02:10.888Z,9.279973
2023-04-13T02:03:10.916Z,9.280093
2023-04-13T02:04:11.965Z,9.280014
2023-04-13T02:05:10.854Z,9.280098
2023-04-13T02:06:10.843Z,9.280144
2023-04-13T02:07:10.780Z,9.279983
2023-04-13T02:08:10.758Z,9.280107
2023-04-13T02:09:10.742Z,9.280035
2023-04-13T02:10:10.724Z,9.279949
2023-04-13T02:11:11.270Z,9.279943
2023-04-13T02:12:10.688Z,9.279937
2023-04-13T02:13:10.668Z,9.279974
2023-04-13T02:14:10.650Z,9.279984
2023-04-13T02:15:10.631Z,9.280033
2023-04-13T02:16:10.650Z,9.279958
2023-04-13T02:17:10.596Z,9.279980
2023-04-13T02:18:10.599Z,9.279989
2023-04-13T02:19:13.436Z,9.280047
2023-04-13T02:20:10.674Z,9.279967
2023-04-13T02:21:10.562Z,9.279904
2023-04-13T02:22:10.503Z,9.279900
2023-04-13T02:23:10.486Z,9.279851
2023-04-13T02:24:10.474Z,9.279868
2023-04-13T02:25:10.447Z,9.279945
2023-04-13T02:26:10.483Z,9.279967
2023-04-13T02:27:10.424Z,9.279941
2023-04-13T02:28:10.394Z,9.279888
2023-04-13T02:29:10.379Z,9.279889
2023-04-13T02:30:10.362Z,9.279889
2023-04-13T02:31:10.377Z,9.280009
2023-04-13T02:32:10.486Z,9.279829
2023-04-13T02:33:10.325Z,9.279920
2023-04-13T02:34:10.296Z,9.279966
2023-04-13T02:35:10.273Z,9.279949
2023-04-13T02:36:10.281Z,9.279958
2023-04-13T02:37:10.242Z,9.279979
2023-04-13T02:38:10.229Z,9.279984
2023-04-13T02:39:10.203Z,9.279930
2023-04-13T02:40:10.183Z,9.279878
2023-04-13T02:41:10.189Z,9.279893
2023-04-13T02:42:10.149Z,9.279950
2023-04-13T02:43:10.126Z,9.279925
2023-04-13T02:44:10.108Z,9.280057
2023-04-13T02:45:10.648Z,9.280042
2023-04-13T02:46:10.123Z,9.279937
2023-04-13T02:47:10.053Z,9.279916
2023-04-13T02:48:10.035Z,9.279934
2023-04-13T02:49:10.017Z,9.279912
2023-04-13T02:50:09.997Z,9.279916
2023-04-13T02:51:10.004Z,9.279878
2023-04-13T02:52:09.962Z,9.279835
2023-04-13T02:53:09.952Z,9.279857
2023-04-13T02:54:09.931Z,9.279880
2023-04-13T02:55:09.928Z,9.279905
2023-04-13T02:56:09.914Z,9.279888
2023-04-13T02:57:09.880Z,9.279787
2023-04-13T02:58:09.853Z,9.279830
2023-04-13T02:59:09.842Z,9.279846
2023-04-13T03:00:10.716Z,9.279928
2023-04-13T03:01:10.676Z,9.279817
2023-04-13T03:02:10.702Z,9.279840
2023-04-13T03:03:09.818Z,9.279944
2023-04-13T03:04:10.653Z,9.280077
2023-04-13T03:05:09.717Z,9.279890
2023-04-13T03:06:09.747Z,9.279862
2023-04-13T03:07:10.688Z,9.279993
2023-04-13T03:08:09.664Z,9.280008
2023-04-13T03:09:09.672Z,9.279918
2023-04-13T03:10:10.753Z,9.279965
2023-04-13T03:11:09.660Z,9.279971
2023-04-13T03:12:10.587Z,9.279823
2023-04-13T03:13:09.572Z,9.279785
2023-04-13T03:14:09.553Z,9.279838
2023-04-13T03:15:09.561Z,9.279872
2023-04-13T03:16:09.518Z,9.279864
2023-04-13T03:17:09.542Z,9.279799
2023-04-13T03:18:09.480Z,9.279775
2023-04-13T03:19:09.474Z,9.279831
2023-04-13T03:20:09.494Z,9.279859
2023-04-13T03:21:09.424Z,9.279847
2023-04-13T03:22:09.406Z,9.279811
2023-04-13T03:23:09.399Z,9.279886
2023-04-13T03:24:42.944Z,9.279896
2023-04-13T03:25:09.385Z,9.279869
2023-04-13T03:26:43.017Z,9.279907
2023-04-13T03:27:09.354Z,9.279816
2023-04-13T03:28:09.324Z,9.279966
2023-04-13T03:29:09.292Z,9.279921
2023-04-13T03:30:09.334Z,9.279876
2023-04-13T03:31:09.283Z,9.279836
2023-04-13T03:32:09.234Z,9.279758
2023-04-13T03:33:09.230Z,9.279887
2023-04-13T03:34:42.808Z,9.279921
2023-04-13T03:35:09.216Z,9.279825
2023-04-13T03:36:09.200Z,9.279868
2023-04-13T03:37:09.175Z,9.279888
2023-04-13T03:38:09.138Z,9.280005
2023-04-13T03:39:09.187Z,9.279916
2023-04-13T03:40:09.111Z,9.279917
2023-04-13T03:41:09.119Z,9.279916
2023-04-13T03:42:09.060Z,9.279882
2023-04-13T03:43:09.061Z,9.279912
2023-04-13T03:44:09.029Z,9.279992
2023-04-13T03:45:09.029Z,9.279885
2023-04-13T03:46:09.000Z,9.279832
2023-04-13T03:47:08.971Z,9.279909
2023-04-13T03:48:08.949Z,9.279929
2023-04-13T03:49:42.520Z,9.279881
2023-04-13T03:50:08.948Z,9.279864
2023-04-13T03:51:08.908Z,9.279840
2023-04-13T03:52:08.885Z,9.279902
2023-04-13T03:53:08.892Z,9.279964
2023-04-13T03:54:08.861Z,9.279929
2023-04-13T03:55:08.891Z,9.279843
2023-04-13T03:56:08.812Z,9.279998
2023-04-13T03:57:08.810Z,9.279911
2023-04-13T03:58:08.764Z,9.279934
2023-04-13T03:59:08.746Z,9.279938
2023-04-13T04:00:08.754Z,9.279993
2023-04-13T04:01:08.706Z,9.279931
2023-04-13T04:02:08.747Z,9.280019
2023-04-13T04:03:08.743Z,9.280054
2023-04-13T04:04:08.731Z,9.279953
2023-04-13T04:05:08.688Z,9.279919
2023-04-13T04:06:08.616Z,9.279958
2023-04-13T04:07:08.599Z,9.280095
2023-04-13T04:08:08.572Z,9.280024
2023-04-13T04:09:08.555Z,9.279908
2023-04-13T04:10:42.170Z,9.279914
2023-04-13T04:11:42.130Z,9.279939
2023-04-13T04:12:42.093Z,9.280005
2023-04-13T04:13:42.114Z,9.279990
2023-04-13T04:14:08.485Z,9.280030
2023-04-13T04:15:42.118Z,9.280098
2023-04-13T04:16:42.163Z,9.280025
2023-04-13T04:17:42.042Z,9.280028
2023-04-13T04:18:42.019Z,9.280063
2023-04-13T04:19:42.004Z,9.279991
2023-04-13T04:20:41.952Z,9.279932
2023-04-13T04:21:41.994Z,9.279969
2023-04-13T04:22:08.373Z,9.279979
2023-04-13T04:23:08.349Z,9.280005
2023-04-13T04:24:08.330Z,9.280015
2023-04-13T04:25:08.339Z,9.280022
2023-04-13T04:26:41.875Z,9.279998
2023-04-13T04:27:08.278Z,9.280010
2023-04-13T04:28:08.261Z,9.279985
2023-04-13T04:29:08.251Z,9.280011
2023-04-13T04:30:08.251Z,9.280065
2023-04-13T04:31:08.201Z,9.280054
2023-04-13T04:32:08.289Z,9.280013
2023-04-13T04:33:08.166Z,9.280028
2023-04-13T04:34:08.154Z,9.279988
2023-04-13T04:35:08.161Z,9.280044
2023-04-13T04:36:08.111Z,9.279979
2023-04-13T04:37:19.495Z,9.280011
2023-04-13T04:38:10.077Z,9.280008
2023-04-13T04:39:08.052Z,9.280094
2023-04-13T04:40:08.065Z,9.280066
2023-04-13T04:41:08.017Z,9.280006
2023-04-13T04:42:08.001Z,9.280091
2023-04-13T04:43:08.004Z,9.280108
2023-04-13T04:44:08.008Z,9.280054
2023-04-13T04:45:07.966Z,9.280035
2023-04-13T04:46:08.015Z,9.279920
2023-04-13T04:47:07.904Z,9.279992
2023-04-13T04:48:07.967Z,9.279860
2023-04-13T04:49:07.866Z,9.280021
2023-04-13T04:50:07.895Z,9.280015
2023-04-13T04:51:07.825Z,9.280004
2023-04-13T04:52:07.817Z,9.279963
2023-04-13T04:53:07.788Z,9.279943
2023-04-13T04:54:07.778Z,9.280048
2023-04-13T04:55:07.792Z,9.279964
2023-04-13T04:56:07.731Z,9.279916
2023-04-13T04:57:07.713Z,9.279992
2023-04-13T04:58:07.691Z,9.280001
2023-04-13T04:59:08.671Z,9.280002
2023-04-13T05:00:07.660Z,9.279961
2023-04-13T05:01:07.838Z,9.280045
2023-04-13T05:02:07.692Z,9.280050
2023-04-13T05:03:07.649Z,9.280011
2023-04-13T05:04:07.583Z,9.279957
2023-04-13T05:05:07.618Z,9.279888
2023-04-13T05:06:07.573Z,9.279942
2023-04-13T05:07:07.525Z,9.279865
2023-04-13T05:08:07.509Z,9.279784
2023-04-13T05:09:07.495Z,9.279784
2023-04-13T05:10:07.490Z,9.279868
2023-04-13T05:11:07.475Z,9.279944
2023-04-13T05:12:07.439Z,9.279932
2023-04-13T05:13:07.417Z,9.279918
2023-04-13T05:14:07.397Z,9.279990
2023-04-13T05:15:07.384Z,9.279977
2023-04-13T05:16:07.428Z,9.279950
2023-04-13T05:17:07.352Z,9.280054
2023-04-13T05:18:07.320Z,9.279888
2023-04-13T05:19:07.309Z,9.279895
2023-04-13T05:20:07.301Z,9.279975
2023-04-13T05:21:07.296Z,9.279970
2023-04-13T05:22:07.252Z,9.280038
2023-04-13T05:23:07.242Z,9.279859
2023-04-13T05:24:07.212Z,9.280159
2023-04-13T05:25:07.196Z,9.279952
2023-04-13T05:26:07.202Z,9.280088
2023-04-13T05:27:07.164Z,9.280029
2023-04-13T05:28:07.141Z,9.280098
2023-04-13T05:29:07.129Z,9.280079
2023-04-13T05:30:07.108Z,9.280245
2023-04-13T05:31:07.143Z,9.280246
2023-04-13T05:32:07.370Z,9.280190
2023-04-13T05:33:07.112Z,9.280115
2023-04-13T05:34:07.038Z,9.280295
2023-04-13T05:35:07.016Z,9.280160
2023-04-13T05:36:07.030Z,9.280074
2023-04-13T05:37:06.978Z,9.279949
2023-04-13T05:38:06.960Z,9.280071
2023-04-13T05:39:06.941Z,9.280005
2023-04-13T05:40:06.920Z,9.280019
2023-04-13T05:41:06.925Z,9.280022
2023-04-13T05:42:06.894Z,9.280072
2023-04-13T05:43:06.879Z,9.280106
2023-04-13T05:44:06.858Z,9.280060
2023-04-13T05:45:06.829Z,9.280061
2023-04-13T05:46:06.880Z,9.280019
2023-04-13T05:47:06.793Z,9.279993
2023-04-13T05:48:06.787Z,9.280081
2023-04-13T05:49:06.755Z,9.280089
2023-04-13T05:50:06.743Z,9.280076
2023-04-13T05:51:06.748Z,9.280137
2023-04-13T05:52:06.691Z,9.280065
2023-04-13T05:53:07.687Z,9.279986
2023-04-13T05:54:06.670Z,9.279966
2023-04-13T05:55:06.646Z,9.279974
2023-04-13T05:56:06.648Z,9.280018
2023-04-13T05:57:06.605Z,9.280016
2023-04-13T05:58:06.584Z,9.280057
2023-04-13T05:59:06.568Z,9.279984
2023-04-13T06:00:06.554Z,9.279998
2023-04-13T06:01:06.558Z,9.280005
2023-04-13T06:02:06.615Z,9.280016
2023-04-13T06:03:06.595Z,9.279991
2023-04-13T06:04:06.615Z,9.280054
2023-04-13T06:05:06.509Z,9.279968
2023-04-13T06:06:06.472Z,9.279967
2023-04-13T06:07:06.423Z,9.279956
2023-04-13T06:08:06.401Z,9.279903
2023-04-13T06:09:06.408Z,9.279988
2023-04-13T06:10:06.390Z,9.279981
2023-04-13T06:11:06.385Z,9.279952
2023-04-13T06:12:06.342Z,9.279929
2023-04-13T06:13:06.327Z,9.279963
2023-04-13T06:14:06.366Z,9.279978
2023-04-13T06:15:06.322Z,9.280033
2023-04-13T06:16:06.280Z,9.279951
2023-04-13T06:17:06.301Z,9.279921
2023-04-13T06:18:06.304Z,9.279960
2023-04-13T06:19:06.238Z,9.279964
2023-04-13T06:20:06.231Z,9.279976
2023-04-13T06:21:06.184Z,9.280024
2023-04-13T06:22:06.159Z,9.279988
2023-04-13T06:23:06.142Z,9.279993
2023-04-13T06:24:06.158Z,9.279915
2023-04-13T06:25:06.147Z,9.279975
2023-04-13T06:26:06.161Z,9.280017
2023-04-13T06:27:06.076Z,9.280092
2023-04-13T06:28:06.059Z,9.280040
2023-04-13T06:29:06.066Z,9.279879
2023-04-13T06:30:06.027Z,9.279902
2023-04-13T06:31:06.087Z,9.280026
2023-04-13T06:32:05.988Z,9.280017
2023-04-13T06:33:05.970Z,9.280054
2023-04-13T06:34:05.995Z,9.280016
2023-04-13T06:35:05.936Z,9.280033
2023-04-13T06:36:05.946Z,9.279948
2023-04-13T06:37:05.901Z,9.280033
2023-04-13T06:38:05.901Z,9.280013
2023-04-13T06:39:05.875Z,9.280014
2023-04-13T06:40:05.848Z,9.279960
2023-04-13T06:41:05.854Z,9.280003
2023-04-13T06:42:05.816Z,9.280005
2023-04-13T06:43:08.953Z,9.279949
2023-04-13T06:44:06.790Z,9.279922
2023-04-13T06:45:05.800Z,9.279891
2023-04-13T06:46:05.794Z,9.280084
2023-04-13T06:47:05.752Z,9.279993
2023-04-13T06:48:05.781Z,9.280009
2023-04-13T06:49:05.702Z,9.280017
2023-04-13T06:50:05.718Z,9.279971
2023-04-13T06:51:05.669Z,9.280074
2023-04-13T06:52:05.653Z,9.280067
2023-04-13T06:53:05.644Z,9.280064
2023-04-13T06:54:05.617Z,9.280069
2023-04-13T06:55:05.622Z,9.279994
2023-04-13T06:56:05.571Z,9.280060
2023-04-13T06:57:05.558Z,9.280039
2023-04-13T06:58:05.532Z,9.280030
2023-04-13T06:59:05.927Z,9.280012
2023-04-13T07:00:06.837Z,9.279956
2023-04-13T07:01:05.511Z,9.280021
2023-04-13T07:02:05.510Z,9.280074
2023-04-13T07:03:05.627Z,9.280074
2023-04-13T07:04:05.474Z,9.280055
2023-04-13T07:05:05.472Z,9.280028
2023-04-13T07:06:05.361Z,9.280061
2023-04-13T07:07:05.345Z,9.279923
2023-04-13T07:08:05.330Z,9.279966
2023-04-13T07:09:05.304Z,9.279956
2023-04-13T07:10:05.301Z,9.279956
2023-04-13T07:11:05.259Z,9.279983
2023-04-13T07:12:05.233Z,9.279954
2023-04-13T07:13:05.211Z,9.279913
2023-04-13T07:14:05.191Z,9.279920
2023-04-13T07:15:05.197Z,9.280022
2023-04-13T07:16:05.345Z,9.280059
2023-04-13T07:17:05.126Z,9.279941
2023-04-13T07:18:05.181Z,9.279989
2023-04-13T07:19:05.092Z,9.279920
2023-04-13T07:20:05.095Z,9.279963
2023-04-13T07:21:05.064Z,9.280063
2023-04-13T07:22:05.050Z,9.280048
2023-04-13T07:23:05.014Z,9.280057
2023-04-13T07:24:04.999Z,9.280090
2023-04-13T07:25:05.004Z,9.280067
2023-04-13T07:26:04.959Z,9.280069
2023-04-13T07:27:04.947Z,9.280077
2023-04-13T07:28:04.946Z,9.279995
2023-04-13T07:29:04.907Z,9.280012
2023-04-13T07:30:04.930Z,9.280072
2023-04-13T07:31:04.921Z,9.279872
2023-04-13T07:32:04.843Z,9.279816
2023-04-13T07:33:04.841Z,9.279990
2023-04-13T07:34:04.812Z,9.280006
2023-04-13T07:35:04.820Z,9.279970
2023-04-13T07:36:04.775Z,9.279924
2023-04-13T07:37:04.768Z,9.279944
2023-04-13T07:38:04.750Z,9.279950
2023-04-13T07:39:04.726Z,9.279881
2023-04-13T07:40:04.725Z,9.279914
2023-04-13T07:41:04.687Z,9.279994
2023-04-13T07:42:04.688Z,9.280094
2023-04-13T07:43:04.679Z,9.280071
2023-04-13T07:44:04.642Z,9.280076
2023-04-13T07:45:04.667Z,9.280009
2023-04-13T07:46:04.634Z,9.279945
2023-04-13T07:47:04.600Z,9.279958
2023-04-13T07:48:04.612Z,9.280072
2023-04-13T07:49:04.553Z,9.280079
2023-04-13T07:50:04.566Z,9.280053
2023-04-13T07:51:04.511Z,9.280024
2023-04-13T07:52:04.494Z,9.279924
2023-04-13T07:53:04.480Z,9.279963
2023-04-13T07:54:04.454Z,9.280004
2023-04-13T07:55:04.470Z,9.279925
2023-04-13T07:56:04.440Z,9.279993
2023-04-13T07:57:04.409Z,9.279983
2023-04-13T07:58:04.384Z,9.279954
2023-04-13T07:59:04.372Z,9.279945
2023-04-13T08:00:04.383Z,9.279942
2023-04-13T08:01:04.342Z,9.279875
2023-04-13T08:02:04.372Z,9.279917
2023-04-13T08:03:04.470Z,9.280045
2023-04-13T08:04:04.398Z,9.280000
2023-04-13T08:05:04.382Z,9.279858
2023-04-13T08:06:04.257Z,9.280005
2023-04-13T08:07:04.243Z,9.279987
2023-04-13T08:08:04.222Z,9.279886
2023-04-13T08:09:04.206Z,9.279978
2023-04-13T08:10:04.240Z,9.279970
2023-04-13T08:11:04.179Z,9.279976
2023-04-13T08:12:04.159Z,9.279922
2023-04-13T08:13:04.147Z,9.280031
2023-04-13T08:14:04.121Z,9.279979
2023-04-13T08:15:04.152Z,9.279993
2023-04-13T08:16:04.145Z,9.280079
2023-04-13T08:17:04.211Z,9.279999
2023-04-13T08:18:04.106Z,9.280000
2023-04-13T08:19:04.046Z,9.280055
2023-04-13T08:20:04.054Z,9.280018
2023-04-13T08:21:04.004Z,9.280057
2023-04-13T08:22:03.984Z,9.280059
2023-04-13T08:23:03.972Z,9.280071
2023-04-13T08:24:03.961Z,9.280041
2023-04-13T08:25:03.956Z,9.280066
2023-04-13T08:26:03.925Z,9.280066
2023-04-13T08:27:03.926Z,9.280065
2023-04-13T08:28:03.884Z,9.280139
2023-04-13T08:29:03.876Z,9.280019
2023-04-13T08:30:03.875Z,9.280044
2023-04-13T08:31:03.833Z,9.280026
2023-04-13T08:32:03.849Z,9.280030
2023-04-13T08:33:03.830Z,9.280068
2023-04-13T08:34:03.783Z,9.280123
2023-04-13T08:35:03.790Z,9.280125
2023-04-13T08:36:03.761Z,9.280057
2023-04-13T08:37:04.782Z,9.279967
2023-04-13T08:38:03.711Z,9.279941
2023-04-13T08:39:03.693Z,9.280006
2023-04-13T08:40:03.697Z,9.279981
2023-04-13T08:41:03.658Z,9.279963
2023-04-13T08:42:03.637Z,9.279978
2023-04-13T08:43:03.615Z,9.279980
2023-04-13T08:44:03.597Z,9.279974
2023-04-13T08:45:03.608Z,9.279992
2023-04-13T08:46:03.611Z,9.280071
2023-04-13T08:47:03.556Z,9.280113
2023-04-13T08:48:03.637Z,9.280150
2023-04-13T08:49:03.518Z,9.280169
2023-04-13T08:50:03.536Z,9.280164
2023-04-13T08:51:03.530Z,9.280103
2023-04-13T08:52:03.472Z,9.280024
2023-04-13T08:53:03.467Z,9.280027
2023-04-13T08:54:03.426Z,9.280064
2023-04-13T08:55:03.434Z,9.279975
2023-04-13T08:56:03.390Z,9.279903
2023-04-13T08:57:03.373Z,9.279810
2023-04-13T08:58:03.350Z,9.279864
2023-04-13T08:59:03.332Z,9.279926
2023-04-13T09:00:03.348Z,9.279942
2023-04-13T09:01:03.325Z,9.279855
2023-04-13T09:02:03.328Z,9.279767
2023-04-13T09:03:06.122Z,9.279904
2023-04-13T09:04:04.428Z,9.279901
2023-04-13T09:05:03.353Z,9.279973
2023-04-13T09:06:03.198Z,9.279964
2023-04-13T09:07:03.169Z,9.279913
2023-04-13T09:08:03.153Z,9.279947
2023-04-13T09:09:03.127Z,9.279912
2023-04-13T09:10:03.134Z,9.279887
2023-04-13T09:11:03.085Z,9.279816
2023-04-13T09:12:03.110Z,9.279880
2023-04-13T09:13:03.068Z,9.279849
2023-04-13T09:14:03.039Z,9.279896
2023-04-13T09:15:03.039Z,9.279943
2023-04-13T09:16:02.989Z,9.279943
2023-04-13T09:17:05.604Z,9.279924
2023-04-13T09:18:02.974Z,9.279960
2023-04-13T09:19:02.921Z,9.279977
2023-04-13T09:20:02.938Z,9.279981
2023-04-13T09:21:02.909Z,9.279985
2023-04-13T09:22:02.863Z,9.279930
2023-04-13T09:23:04.915Z,9.279897
2023-04-13T09:24:03.823Z,9.279876
2023-04-13T09:25:02.832Z,9.279898
2023-04-13T09:26:02.810Z,9.279856
2023-04-13T09:27:02.769Z,9.279886
2023-04-13T09:28:02.746Z,9.279900
2023-04-13T09:29:02.746Z,9.279866
2023-04-13T09:30:02.729Z,9.279950
2023-04-13T09:31:02.728Z,9.279947
2023-04-13T09:32:02.665Z,9.279966
2023-04-13T09:33:02.741Z,9.279975
2023-04-13T09:34:02.627Z,9.279983
2023-04-13T09:35:02.636Z,9.279879
2023-04-13T09:36:02.596Z,9.279871
2023-04-13T09:37:02.581Z,9.279872
2023-04-13T09:38:02.550Z,9.279824
2023-04-13T09:39:02.842Z,9.279835
2023-04-13T09:40:02.528Z,9.279819
2023-04-13T09:41:02.492Z,9.279876
2023-04-13T09:42:02.475Z,9.279941
2023-04-13T09:43:02.531Z,9.279868
2023-04-13T09:44:02.437Z,9.279944
2023-04-13T09:45:02.465Z,9.279903
2023-04-13T09:46:02.416Z,9.279909
2023-04-13T09:47:02.425Z,9.279788
2023-04-13T09:48:02.491Z,9.279886
2023-04-13T09:49:02.652Z,9.279903
2023-04-13T09:50:02.357Z,9.279893
2023-04-13T09:51:02.320Z,9.279936
2023-04-13T09:52:02.287Z,9.279943
2023-04-13T09:53:02.271Z,9.279907
2023-04-13T09:54:02.256Z,9.279917
2023-04-13T09:55:02.278Z,9.279888
2023-04-13T09:56:02.239Z,9.279914
2023-04-13T09:57:02.201Z,9.279916
2023-04-13T09:58:02.186Z,9.279865
2023-04-13T09:59:02.167Z,9.279947
2023-04-13T10:00:02.290Z,9.279938
2023-04-13T10:01:02.182Z,9.279938
2023-04-13T10:02:02.251Z,9.279935
2023-04-13T10:03:02.160Z,9.279949
2023-04-13T10:04:02.190Z,9.279958
2023-04-13T10:05:02.174Z,9.279939
2023-04-13T10:06:02.219Z,9.279948
2023-04-13T10:07:02.074Z,9.279940
2023-04-13T10:08:03.025Z,9.279958
2023-04-13T10:09:01.993Z,9.279948
2023-04-13T10:10:02.000Z,9.279997
2023-04-13T10:11:01.971Z,9.280061
2023-04-13T10:12:01.935Z,9.280017
2023-04-13T10:13:01.939Z,9.279966
2023-04-13T10:14:02.084Z,9.279903
2023-04-13T10:15:01.912Z,9.279891
2023-04-13T10:16:04.011Z,9.279921
2023-04-13T10:17:01.859Z,9.279927
2023-04-13T10:18:01.888Z,9.279918
2023-04-13T10:19:02.043Z,9.280028
2023-04-13T10:20:01.821Z,9.279786
2023-04-13T10:21:01.773Z,9.279885
2023-04-13T10:22:01.748Z,9.279996
2023-04-13T10:23:01.730Z,9.279974
2023-04-13T10:24:01.997Z,9.279993
2023-04-13T10:25:01.731Z,9.279842
2023-04-13T10:26:01.678Z,9.279822
2023-04-13T10:27:01.670Z,9.279977
2023-04-13T10:28:01.625Z,9.279967
2023-04-13T10:29:01.599Z,9.279877
2023-04-13T10:30:01.610Z,9.279813
2023-04-13T10:31:01.567Z,9.279959
2023-04-13T10:32:01.672Z,9.279869
2023-04-13T10:33:01.550Z,9.280013
2023-04-13T10:34:01.675Z,9.279951
2023-04-13T10:35:01.509Z,9.279881
2023-04-13T10:36:01.476Z,9.279928
2023-04-13T10:37:01.444Z,9.279893
2023-04-13T10:38:01.423Z,9.279845
2023-04-13T10:39:01.613Z,9.279804
2023-04-13T10:40:01.411Z,9.279939
2023-04-13T10:41:01.509Z,9.279886
2023-04-13T10:42:01.342Z,9.279829
2023-04-13T10:43:01.314Z,9.279904
2023-04-13T10:44:01.299Z,9.280072
2023-04-13T10:45:01.307Z,9.279960
2023-04-13T10:46:01.250Z,9.279905
2023-04-13T10:47:01.260Z,9.280048
2023-04-13T10:48:01.284Z,9.279873
2023-04-13T10:49:01.387Z,9.279858
2023-04-13T10:50:01.783Z,9.279892
2023-04-13T10:51:01.137Z,9.279890
2023-04-13T10:52:01.130Z,9.279836
2023-04-13T10:53:01.103Z,9.279815
2023-04-13T10:54:01.085Z,9.279832
2023-04-13T10:55:01.092Z,9.279846
2023-04-13T10:56:01.031Z,9.279847
2023-04-13T10:57:02.076Z,9.279925
2023-04-13T10:58:01.012Z,9.279924
2023-04-13T10:59:01.118Z,9.279886
2023-04-13T11:00:00.991Z,9.279959
2023-04-13T11:01:00.946Z,9.279922
2023-04-13T11:02:01.014Z,9.279909
2023-04-13T11:03:01.023Z,9.279779
2023-04-13T11:04:05.099Z,9.279790
2023-04-13T11:05:03.051Z,9.279898
2023-04-13T11:06:00.837Z,9.279817
2023-04-13T11:07:00.805Z,9.279821
2023-04-13T11:08:00.818Z,9.279838
2023-04-13T11:09:00.782Z,9.279867
2023-04-13T11:10:04.027Z,9.279978
2023-04-13T11:11:01.732Z,9.279965
2023-04-13T11:12:00.707Z,9.280039
2023-04-13T11:13:00.683Z,9.279980
2023-04-13T11:14:00.724Z,9.279966
2023-04-13T11:15:00.657Z,9.279915
2023-04-13T11:16:01.658Z,9.279959
2023-04-13T11:17:00.606Z,9.279899
2023-04-13T11:18:00.608Z,9.279953
2023-04-13T11:19:00.835Z,9.279942
2023-04-13T11:20:00.533Z,9.280001
2023-04-13T11:21:00.515Z,9.279928
2023-04-13T11:22:00.489Z,9.279933
2023-04-13T11:23:00.478Z,9.279968
2023-04-13T11:24:00.471Z,9.279934
2023-04-13T11:25:00.448Z,9.279900
2023-04-13T11:26:00.409Z,9.279904
2023-04-13T11:27:00.385Z,9.279924
2023-04-13T11:28:00.384Z,9.279921
2023-04-13T11:29:00.484Z,9.279959
2023-04-13T11:30:00.348Z,9.279948
2023-04-13T11:31:00.290Z,9.279854
2023-04-13T11:32:00.330Z,9.279886
2023-04-13T11:33:00.347Z,9.279912
2023-04-13T11:34:00.454Z,9.279995
2023-04-13T11:35:00.207Z,9.279999
2023-04-13T11:36:00.307Z,9.279956
2023-04-13T11:37:00.158Z,9.280046
2023-04-13T11:38:00.156Z,9.280084
2023-04-13T11:39:00.484Z,9.280005
2023-04-13T11:40:00.156Z,9.280046
2023-04-13T11:41:12.592Z,9.280043
2023-04-13T11:42:02.088Z,9.279995
2023-04-13T11:43:00.036Z,9.279982
2023-04-13T11:44:00.038Z,9.279896